createdAt,value
2022-09-07T00:00:57.228Z,80.53
2022-09-07T00:01:58.591Z,80.25
2022-09-07T00:03:00.114Z,79.51
2022-09-07T00:04:01.672Z,79.66
2022-09-07T00:05:03.188Z,79.09
2022-09-07T00:06:06.724Z,78.79
2022-09-07T00:07:08.108Z,78.93
2022-09-07T00:08:09.606Z,78.48
2022-09-07T00:09:10.974Z,78.35
2022-09-07T00:10:12.388Z,78.67
2022-09-07T00:11:15.331Z,78.40
2022-09-07T00:12:16.777Z,78.44
2022-09-07T00:13:18.133Z,78.42
2022-09-07T00:14:19.523Z,78.36
2022-09-07T00:15:22.441Z,78.27
2022-09-07T00:16:27.814Z,78.28
2022-09-07T00:17:30.447Z,77.79
2022-09-07T00:18:31.874Z,78.42
2022-09-07T00:19:33.241Z,78.98
2022-09-07T00:20:34.645Z,79.10
2022-09-07T00:21:36.827Z,79.25
2022-09-07T00:22:38.400Z,79.48
2022-09-07T00:23:40.024Z,79.53
2022-09-07T00:24:41.420Z,79.61
2022-09-07T00:25:42.758Z,79.74
2022-09-07T00:26:44.123Z,80.29
2022-09-07T00:27:45.489Z,80.25
2022-09-07T00:28:47.181Z,79.93
2022-09-07T00:29:48.568Z,80.31
2022-09-07T00:30:49.916Z,80.35
2022-09-07T00:31:51.347Z,80.44
2022-09-07T00:32:52.799Z,80.13
2022-09-07T00:33:54.454Z,80.23
2022-09-07T00:34:55.862Z,80.24
2022-09-07T00:35:59.735Z,80.66
2022-09-07T00:37:01.107Z,80.42
2022-09-07T00:38:02.490Z,80.97
2022-09-07T00:39:04.008Z,81.07
2022-09-07T00:40:05.673Z,81.02
2022-09-07T00:41:07.219Z,80.95
2022-09-07T00:42:08.573Z,81.11
2022-09-07T00:43:14.867Z,80.97
2022-09-07T00:44:35.184Z,81.24
2022-09-07T00:45:36.571Z,81.50
2022-09-07T00:46:38.135Z,81.72
2022-09-07T00:47:45.240Z,81.93
2022-09-07T00:49:09.841Z,81.95
2022-09-07T00:50:17.150Z,82.00
2022-09-07T00:51:21.117Z,82.86
2022-09-07T00:52:23.360Z,82.83
2022-09-07T00:53:31.862Z,82.86
2022-09-07T00:54:38.077Z,82.88
2022-09-07T00:55:40.788Z,82.79
2022-09-07T00:56:43.575Z,83.19
2022-09-07T00:57:47.435Z,83.54
2022-09-07T00:58:48.889Z,83.08
2022-09-07T00:59:52.545Z,82.65
2022-09-07T01:00:53.957Z,82.82
2022-09-07T01:01:55.502Z,82.70
2022-09-07T01:02:58.291Z,83.05
2022-09-07T01:04:00.772Z,83.54
2022-09-07T01:05:09.606Z,83.54
2022-09-07T01:06:19.240Z,83.65
2022-09-07T01:07:20.619Z,84.05
2022-09-07T01:08:22.794Z,84.55
2022-09-07T01:09:26.193Z,84.79
2022-09-07T01:10:28.996Z,85.34
2022-09-07T01:11:31.091Z,85.75
2022-09-07T01:12:32.502Z,85.66
2022-09-07T01:13:33.878Z,85.87
2022-09-07T01:14:36.879Z,86.38
2022-09-07T01:15:38.264Z,86.59
2022-09-07T01:16:42.156Z,86.75
2022-09-07T01:17:55.724Z,86.78
2022-09-07T01:19:15.465Z,87.04
2022-09-07T01:20:22.598Z,86.68
2022-09-07T01:21:36.024Z,86.50
2022-09-07T01:22:56.321Z,87.11
2022-09-07T01:24:00.268Z,86.88
2022-09-07T01:25:09.494Z,87.55
2022-09-07T01:26:29.319Z,87.04
2022-09-07T01:27:30.653Z,87.40
2022-09-07T01:28:33.571Z,87.58
2022-09-07T01:30:03.920Z,87.56
2022-09-07T01:31:11.587Z,87.75
2022-09-07T01:32:18.835Z,87.95
2022-09-07T01:33:20.199Z,88.49
2022-09-07T01:34:23.048Z,88.68
2022-09-07T01:35:45.067Z,88.48
2022-09-07T01:36:49.292Z,88.49
2022-09-07T01:37:57.154Z,88.04
2022-09-07T01:39:03.002Z,88.07
2022-09-07T01:40:15.668Z,87.88
2022-09-07T01:41:22.709Z,88.21
2022-09-07T01:42:27.420Z,88.46
2022-09-07T01:43:31.388Z,87.88
2022-09-07T01:44:35.475Z,88.04
2022-09-07T01:45:39.802Z,88.08
2022-09-07T01:46:49.673Z,87.73
2022-09-07T01:47:54.476Z,88.03
2022-09-07T01:48:59.729Z,89.40
2022-09-07T01:50:10.552Z,89.65
2022-09-07T01:51:12.396Z,89.51
2022-09-07T01:52:16.211Z,88.68
2022-09-07T01:53:21.701Z,88.89
2022-09-07T01:54:25.887Z,89.27
2022-09-07T01:55:29.989Z,89.22
2022-09-07T01:56:33.728Z,89.18
2022-09-07T01:57:40.500Z,89.04
2022-09-07T01:58:42.031Z,88.91
2022-09-07T01:59:50.492Z,88.98
2022-09-07T02:00:58.954Z,88.03
2022-09-07T02:02:00.327Z,88.25
2022-09-07T02:03:07.720Z,88.63
2022-09-07T02:04:16.767Z,88.66
2022-09-07T02:05:23.410Z,89.13
2022-09-07T02:06:38.281Z,89.26
2022-09-07T02:07:46.367Z,89.27
2022-09-07T02:08:51.652Z,89.23
2022-09-07T02:10:05.379Z,89.31
2022-09-07T02:11:09.924Z,88.95
2022-09-07T02:12:17.432Z,89.42
2022-09-07T02:13:23.893Z,89.81
2022-09-07T02:14:28.748Z,90.24
2022-09-07T02:15:38.887Z,90.47
2022-09-07T02:16:46.005Z,90.09
2022-09-07T02:17:52.381Z,89.64
2022-09-07T02:18:56.267Z,89.65
2022-09-07T02:20:00.626Z,89.41
2022-09-07T02:21:03.532Z,88.80
2022-09-07T02:22:07.667Z,88.60
2022-09-07T02:23:13.995Z,88.43
2022-09-07T02:24:18.214Z,88.07
2022-09-07T02:25:22.528Z,87.35
2022-09-07T02:26:25.340Z,87.81
2022-09-07T02:27:30.283Z,87.88
2022-09-07T02:28:33.335Z,88.04
2022-09-07T02:29:34.972Z,87.73
2022-09-07T02:30:36.886Z,88.00
2022-09-07T02:31:38.260Z,88.02
2022-09-07T02:32:39.712Z,88.07
2022-09-07T02:33:41.315Z,88.39
2022-09-07T02:34:42.719Z,88.50
2022-09-07T02:35:44.272Z,88.90
2022-09-07T02:36:47.857Z,88.49
2022-09-07T02:37:50.789Z,88.32
2022-09-07T02:38:52.529Z,88.88
2022-09-07T02:39:54.208Z,89.04
2022-09-07T02:40:56.717Z,89.17
2022-09-07T02:41:58.084Z,89.03
2022-09-07T02:43:01.044Z,89.43
2022-09-07T02:44:04.412Z,89.57
2022-09-07T02:45:08.076Z,89.14
2022-09-07T02:46:18.252Z,89.79
2022-09-07T02:47:37.632Z,90.03
2022-09-07T02:48:48.016Z,89.92
2022-09-07T02:50:08.184Z,89.89
2022-09-07T02:51:15.318Z,89.33
2022-09-07T02:52:35.107Z,89.22
2022-09-07T02:53:45.223Z,89.36
2022-09-07T02:55:02.664Z,89.44
2022-09-07T02:56:16.584Z,89.41
2022-09-07T02:57:30.499Z,89.68
2022-09-07T02:58:40.794Z,90.02
2022-09-07T02:59:48.172Z,90.55
2022-09-07T03:01:02.488Z,90.70
2022-09-07T03:02:07.293Z,90.60
2022-09-07T03:03:08.688Z,90.43
2022-09-07T03:04:33.326Z,90.58
2022-09-07T03:05:43.877Z,90.24
2022-09-07T03:06:50.377Z,90.65
2022-09-07T03:07:51.727Z,90.70
2022-09-07T03:08:55.530Z,90.62
2022-09-07T03:09:57.749Z,90.66
2022-09-07T03:10:59.607Z,90.88
2022-09-07T03:12:04.443Z,91.02
2022-09-07T03:13:05.875Z,90.73
2022-09-07T03:14:12.906Z,90.61
2022-09-07T03:15:15.702Z,90.71
2022-09-07T03:16:17.160Z,90.77
2022-09-07T03:17:18.607Z,90.44
2022-09-07T03:18:20.413Z,90.60
2022-09-07T03:19:21.780Z,90.46
2022-09-07T03:20:23.482Z,89.95
2022-09-07T03:21:24.823Z,90.11
2022-09-07T03:22:26.181Z,89.99
2022-09-07T03:23:27.560Z,90.09
2022-09-07T03:24:29.098Z,90.44
2022-09-07T03:25:30.509Z,90.47
2022-09-07T03:26:31.872Z,90.86
2022-09-07T03:27:33.462Z,90.69
2022-09-07T03:28:34.837Z,90.53
2022-09-07T03:29:40.187Z,90.96
2022-09-07T03:30:43.950Z,90.80
2022-09-07T03:31:45.613Z,90.80
2022-09-07T03:32:47.040Z,91.15
2022-09-07T03:33:48.395Z,91.01
2022-09-07T03:34:49.770Z,91.02
2022-09-07T03:36:00.881Z,91.26
2022-09-07T03:37:02.239Z,91.51
2022-09-07T03:38:03.631Z,91.76
2022-09-07T03:39:05.535Z,92.35
2022-09-07T03:40:08.039Z,92.94
2022-09-07T03:41:09.541Z,93.12
2022-09-07T03:42:10.912Z,92.91
2022-09-07T03:43:12.255Z,93.19
2022-09-07T03:44:13.616Z,92.61
2022-09-07T03:45:15.024Z,92.88
2022-09-07T03:46:16.615Z,93.14
2022-09-07T03:47:18.352Z,93.47
2022-09-07T03:48:19.723Z,94.14
2022-09-07T03:49:21.096Z,94.56
2022-09-07T03:50:22.458Z,94.56
2022-09-07T03:51:23.924Z,94.24
2022-09-07T03:52:25.318Z,93.70
2022-09-07T03:53:26.877Z,94.56
2022-09-07T03:54:28.245Z,94.94
2022-09-07T03:55:29.619Z,94.58
2022-09-07T03:56:30.995Z,94.87
2022-09-07T03:57:32.373Z,95.00
2022-09-07T03:58:34.065Z,95.29
2022-09-07T03:59:35.708Z,94.81
2022-09-07T04:00:40.835Z,94.80
2022-09-07T04:01:42.288Z,94.80
2022-09-07T04:02:43.805Z,94.93
2022-09-07T04:03:45.740Z,94.83
2022-09-07T04:04:47.147Z,94.59
2022-09-07T04:05:48.496Z,94.85
2022-09-07T04:06:49.911Z,94.90
2022-09-07T04:07:51.271Z,94.83
2022-09-07T04:08:52.614Z,94.95
2022-09-07T04:09:53.991Z,94.81
2022-09-07T04:10:56.092Z,94.89
2022-09-07T04:11:57.450Z,95.00
2022-09-07T04:12:58.823Z,95.06
2022-09-07T04:14:00.325Z,95.01
2022-09-07T04:15:01.773Z,94.67
2022-09-07T04:16:09.800Z,94.74
2022-09-07T04:17:11.196Z,94.85
2022-09-07T04:18:12.586Z,95.12
2022-09-07T04:19:13.977Z,95.07
2022-09-07T04:20:15.375Z,95.00
2022-09-07T04:21:17.886Z,94.23
2022-09-07T04:22:19.265Z,94.08
2022-09-07T04:23:20.663Z,94.47
2022-09-07T04:24:22.030Z,94.36
2022-09-07T04:25:23.452Z,93.93
2022-09-07T04:26:25.896Z,93.97
2022-09-07T04:27:27.250Z,94.54
2022-09-07T04:28:28.646Z,94.90
2022-09-07T04:29:30.101Z,94.99
2022-09-07T04:30:33.924Z,95.36
2022-09-07T04:31:35.762Z,95.12
2022-09-07T04:32:37.188Z,95.31
2022-09-07T04:33:38.606Z,95.14
2022-09-07T04:34:39.997Z,94.90
2022-09-07T04:35:41.978Z,95.38
2022-09-07T04:36:43.351Z,95.18
2022-09-07T04:37:44.877Z,95.00
2022-09-07T04:38:46.413Z,95.25
2022-09-07T04:39:47.875Z,94.71
2022-09-07T04:40:49.282Z,94.94
2022-09-07T04:41:50.660Z,95.58
2022-09-07T04:42:52.032Z,95.62
2022-09-07T04:43:54.943Z,95.79
2022-09-07T04:44:56.683Z,95.79
2022-09-07T04:46:01.418Z,95.08
2022-09-07T04:47:02.847Z,94.89
2022-09-07T04:48:04.935Z,94.56
2022-09-07T04:49:07.845Z,94.91
2022-09-07T04:50:09.434Z,95.00
2022-09-07T04:51:11.187Z,95.20
2022-09-07T04:52:12.548Z,95.17
2022-09-07T04:53:13.927Z,95.02
2022-09-07T04:54:15.330Z,94.96
2022-09-07T04:55:16.807Z,94.47
2022-09-07T04:56:19.248Z,94.34
2022-09-07T04:57:20.626Z,94.07
2022-09-07T04:58:21.968Z,94.17
2022-09-07T04:59:23.337Z,94.39
2022-09-07T05:00:24.766Z,94.85
2022-09-07T05:01:26.338Z,94.90
2022-09-07T05:02:27.799Z,94.91
2022-09-07T05:03:30.029Z,95.03
2022-09-07T05:04:31.379Z,95.46
2022-09-07T05:05:35.683Z,95.40
2022-09-07T05:06:37.075Z,95.66
2022-09-07T05:07:38.427Z,95.61
2022-09-07T05:08:44.360Z,95.95
2022-09-07T05:09:46.764Z,95.77
2022-09-07T05:10:51.795Z,95.93
2022-09-07T05:11:53.183Z,95.32
2022-09-07T05:12:54.565Z,95.08
2022-09-07T05:13:59.612Z,95.12
2022-09-07T05:15:01.032Z,95.65
2022-09-07T05:16:08.036Z,95.81
2022-09-07T05:17:09.497Z,95.84
2022-09-07T05:18:10.877Z,96.09
2022-09-07T05:19:13.017Z,95.60
2022-09-07T05:20:18.416Z,95.15
2022-09-07T05:21:22.714Z,95.01
2022-09-07T05:22:24.113Z,94.60
2022-09-07T05:23:25.468Z,94.10
2022-09-07T05:24:26.824Z,93.83
2022-09-07T05:25:28.600Z,93.72
2022-09-07T05:26:31.335Z,93.46
2022-09-07T05:27:32.728Z,93.70
2022-09-07T05:28:34.535Z,93.21
2022-09-07T05:31:19.453Z,92.17
2022-09-07T05:32:21.427Z,91.90
2022-09-07T05:33:22.833Z,91.77
2022-09-07T05:34:32.319Z,91.38
2022-09-07T05:35:34.369Z,91.38
2022-09-07T05:36:35.766Z,91.69
2022-09-07T05:37:37.131Z,91.64
2022-09-07T05:38:38.491Z,91.82
2022-09-07T05:39:39.936Z,91.60
2022-09-07T05:40:41.336Z,91.54
2022-09-07T05:41:42.704Z,91.18
2022-09-07T05:42:44.098Z,91.04
2022-09-07T05:45:07.306Z,90.84
2022-09-07T05:46:09.212Z,90.81
2022-09-07T05:47:10.841Z,91.03
2022-09-07T05:48:12.245Z,91.11
2022-09-07T05:49:13.633Z,90.96
2022-09-07T05:50:14.984Z,90.81
2022-09-07T05:51:16.363Z,90.43
2022-09-07T05:52:17.758Z,89.95
2022-09-07T05:53:19.700Z,89.77
2022-09-07T05:54:21.075Z,89.71
2022-09-07T05:55:29.958Z,89.52
2022-09-07T05:56:33.969Z,89.81
2022-09-07T05:57:35.334Z,89.75
2022-09-07T05:58:37.043Z,89.61
2022-09-07T05:59:38.534Z,89.38
2022-09-07T06:00:39.890Z,88.88
2022-09-07T06:01:41.293Z,88.73
2022-09-07T06:02:42.795Z,88.42
2022-09-07T06:03:44.393Z,88.10
2022-09-07T06:04:45.759Z,87.85
2022-09-07T06:05:47.129Z,87.38
2022-09-07T06:07:17.731Z,87.58
2022-09-07T06:08:09.918Z,87.35
2022-09-07T06:09:11.363Z,87.22
2022-09-07T06:11:34.269Z,87.12
2022-09-07T06:12:35.688Z,86.76
2022-09-07T06:13:37.136Z,85.95
2022-09-07T06:14:38.494Z,85.92
2022-09-07T06:15:39.889Z,85.84
2022-09-07T06:16:41.312Z,85.70
2022-09-07T06:17:43.137Z,85.65
2022-09-07T06:18:45.519Z,85.87
2022-09-07T06:19:46.903Z,85.20
2022-09-07T06:20:48.295Z,85.06
2022-09-07T06:21:49.680Z,84.94
2022-09-07T06:22:51.033Z,84.85
2022-09-07T06:23:52.393Z,85.14
2022-09-07T06:24:53.743Z,84.13
2022-09-07T06:25:55.103Z,84.18
2022-09-07T06:26:56.473Z,83.71
2022-09-07T06:27:57.821Z,83.89
2022-09-07T06:28:59.212Z,83.26
2022-09-07T06:30:00.595Z,82.74
2022-09-07T06:31:06.527Z,81.97
2022-09-07T06:33:29.255Z,81.06
2022-09-07T06:34:30.595Z,79.60
2022-09-07T06:35:31.958Z,79.55
2022-09-07T06:36:33.373Z,78.62
2022-09-07T06:37:34.729Z,78.71
2022-09-07T06:38:37.200Z,79.13
2022-09-07T06:39:38.719Z,78.57
2022-09-07T06:40:40.130Z,78.03
2022-09-07T06:43:05.159Z,76.72
2022-09-07T06:44:06.535Z,75.43
2022-09-07T06:45:08.122Z,75.16
2022-09-07T06:47:30.844Z,75.60
2022-09-07T06:48:32.769Z,75.28
2022-09-07T06:49:34.232Z,75.87
2022-09-07T06:50:35.596Z,75.40
2022-09-07T06:51:36.948Z,75.68
2022-09-07T06:55:21.039Z,77.22
2022-09-07T06:56:22.644Z,76.96
2022-09-07T06:57:23.991Z,77.71
2022-09-07T06:58:25.761Z,76.90
2022-09-07T06:59:27.173Z,77.17
2022-09-07T07:00:28.530Z,76.92
2022-09-07T07:01:29.946Z,76.62
2022-09-07T07:02:32.250Z,75.79
2022-09-07T07:03:33.684Z,76.05
2022-09-07T07:04:40.197Z,75.18
2022-09-07T07:05:42.563Z,75.28
2022-09-07T07:06:43.947Z,75.68
2022-09-07T07:07:45.341Z,74.95
2022-09-07T07:08:47.311Z,74.71
2022-09-07T07:09:49.683Z,74.75
2022-09-07T07:10:51.569Z,74.72
2022-09-07T07:11:52.941Z,74.49
2022-09-07T07:12:54.706Z,74.51
2022-09-07T07:13:56.091Z,74.54
2022-09-07T07:14:57.425Z,74.89
2022-09-07T07:16:15.320Z,74.58
2022-09-07T07:17:16.746Z,74.90
2022-09-07T07:18:21.178Z,74.41
2022-09-07T07:19:25.808Z,74.34
2022-09-07T07:20:27.228Z,74.36
2022-09-07T07:21:38.349Z,74.40
2022-09-07T07:22:50.802Z,75.03
2022-09-07T07:23:52.892Z,74.96
2022-09-07T07:24:54.247Z,74.39
2022-09-07T07:25:55.885Z,74.59
2022-09-07T07:26:57.215Z,74.90
2022-09-07T07:29:21.246Z,75.46
2022-09-07T07:30:24.211Z,75.71
2022-09-07T07:31:25.952Z,75.94
2022-09-07T07:32:27.296Z,74.85
2022-09-07T07:33:29.807Z,74.67
2022-09-07T07:34:31.257Z,74.82
2022-09-07T07:35:32.614Z,74.92
2022-09-07T07:36:33.946Z,74.72
2022-09-07T07:37:36.004Z,74.87
2022-09-07T07:42:38.199Z,73.63
2022-09-07T07:43:39.811Z,73.20
2022-09-07T07:44:41.161Z,73.62
2022-09-07T07:46:01.235Z,73.59
2022-09-07T07:47:05.489Z,74.17
2022-09-07T07:48:06.860Z,73.87
2022-09-07T07:49:08.198Z,74.75
2022-09-07T07:51:31.777Z,74.78
2022-09-07T07:53:41.268Z,74.70
2022-09-07T07:54:14.104Z,74.05
2022-09-07T07:56:36.842Z,74.08
2022-09-07T07:57:38.158Z,73.52
2022-09-07T07:58:40.050Z,73.90
2022-09-07T07:59:41.374Z,73.77
2022-09-07T08:00:58.303Z,72.98
2022-09-07T08:01:59.930Z,73.02
2022-09-07T08:03:01.353Z,73.30
2022-09-07T08:04:02.845Z,73.16
2022-09-07T08:05:04.278Z,73.22
2022-09-07T08:06:05.599Z,72.99
2022-09-07T08:07:10.596Z,72.67
2022-09-07T08:08:12.609Z,72.39
2022-09-07T08:09:14.028Z,72.27
2022-09-07T08:10:15.404Z,72.14
2022-09-07T08:11:17.788Z,71.80
2022-09-07T08:12:20.006Z,71.69
2022-09-07T08:13:21.467Z,70.83
2022-09-07T08:14:23.028Z,71.53
2022-09-07T08:15:24.390Z,70.34
2022-09-07T08:16:25.830Z,70.42
2022-09-07T08:17:27.224Z,70.26
2022-09-07T08:18:28.699Z,69.56
2022-09-07T08:19:30.164Z,68.80
2022-09-07T08:20:31.584Z,67.28
2022-09-07T08:21:32.893Z,67.30
2022-09-07T08:22:34.958Z,67.61
2022-09-07T08:23:36.649Z,67.50
2022-09-07T08:24:37.974Z,67.76
2022-09-07T08:25:48.360Z,68.45
2022-09-07T08:26:49.661Z,66.54
2022-09-07T08:27:50.953Z,66.84
2022-09-07T08:28:52.279Z,67.23
2022-09-07T08:29:53.676Z,66.80
2022-09-07T08:30:55.643Z,67.39
2022-09-07T08:31:57.238Z,66.95
2022-09-07T08:32:58.623Z,66.95
2022-09-07T08:33:59.936Z,65.97
2022-09-07T08:35:01.311Z,66.55
2022-09-07T08:36:03.521Z,67.94
2022-09-07T08:37:04.822Z,66.29
2022-09-07T08:38:06.133Z,65.55
2022-09-07T08:39:07.518Z,65.85
2022-09-07T08:40:16.142Z,65.68
2022-09-07T08:41:26.388Z,66.02
2022-09-07T08:42:30.680Z,66.10
2022-09-07T08:43:48.855Z,66.62
2022-09-07T08:45:10.740Z,66.99
2022-09-07T08:46:26.423Z,66.23
2022-09-07T08:47:33.691Z,66.28
2022-09-07T08:48:35.222Z,65.97
2022-09-07T08:49:55.046Z,65.35
2022-09-07T08:51:00.851Z,65.79
2022-09-07T08:52:25.236Z,65.75
2022-09-07T08:53:26.870Z,65.67
2022-09-07T08:54:28.665Z,65.69
2022-09-07T08:55:31.484Z,65.64
2022-09-07T08:56:39.316Z,65.55
2022-09-07T08:57:44.795Z,64.57
2022-09-07T08:58:49.497Z,64.21
2022-09-07T09:00:00.729Z,64.54
2022-09-07T09:02:30.103Z,65.77
2022-09-07T09:03:33.455Z,65.89
2022-09-07T09:05:16.444Z,65.85
2022-09-07T09:06:03.935Z,65.92
2022-09-07T09:07:22.513Z,66.08
2022-09-07T09:08:26.655Z,65.89
2022-09-07T09:09:40.884Z,66.00
2022-09-07T09:10:42.217Z,65.62
2022-09-07T09:11:52.513Z,66.36
2022-09-07T09:13:12.405Z,65.04
2022-09-07T09:14:19.503Z,65.02
2022-09-07T09:15:23.488Z,65.03
2022-09-07T09:16:30.932Z,64.90
2022-09-07T09:17:35.316Z,64.48
2022-09-07T09:18:42.511Z,64.83
2022-09-07T09:19:53.324Z,65.07
2022-09-07T09:20:55.531Z,65.64
2022-09-07T09:22:12.122Z,64.95
2022-09-07T09:23:15.076Z,65.45
2022-09-07T09:24:17.986Z,66.07
2022-09-07T09:25:21.278Z,66.27
2022-09-07T09:26:24.060Z,65.37
2022-09-07T09:27:25.458Z,64.51
2022-09-07T09:28:28.950Z,64.17
2022-09-07T09:29:33.219Z,65.21
2022-09-07T09:30:34.511Z,65.33
2022-09-07T09:31:35.865Z,65.11
2022-09-07T09:32:38.835Z,64.61
2022-09-07T09:33:40.108Z,63.74
2022-09-07T09:34:59.633Z,63.91
2022-09-07T09:36:01.132Z,63.55
2022-09-07T09:37:02.444Z,63.35
2022-09-07T09:38:03.842Z,63.02
2022-09-07T09:39:25.374Z,63.54
2022-09-07T09:40:30.144Z,63.00
2022-09-07T09:41:38.989Z,63.27
2022-09-07T09:42:40.469Z,62.93
2022-09-07T09:43:46.467Z,63.14
2022-09-07T09:44:47.855Z,64.00
2022-09-07T09:47:31.972Z,63.34
2022-09-07T09:48:35.003Z,62.76
2022-09-07T09:49:37.944Z,62.02
2022-09-07T09:53:31.996Z,63.30
2022-09-07T09:54:38.986Z,63.18
2022-09-07T09:55:40.578Z,63.02
2022-09-07T09:56:43.381Z,62.26
2022-09-07T10:01:21.265Z,61.38
2022-09-07T10:04:42.208Z,62.11
2022-09-07T10:05:45.219Z,61.28
2022-09-07T10:06:53.569Z,61.66
2022-09-07T10:07:55.181Z,60.77
2022-09-07T10:08:58.204Z,61.56
2022-09-07T10:09:59.648Z,61.86
2022-09-07T10:11:03.825Z,62.38
2022-09-07T10:12:07.023Z,61.69
2022-09-07T10:13:18.420Z,62.12
2022-09-07T10:14:25.575Z,61.37
2022-09-07T10:15:37.778Z,60.93
2022-09-07T10:16:42.392Z,59.90
2022-09-07T10:17:47.573Z,60.18
2022-09-07T10:18:56.541Z,59.82
2022-09-07T10:20:13.030Z,60.23
2022-09-07T10:21:23.700Z,61.28
2022-09-07T10:22:31.200Z,60.97
2022-09-07T10:23:32.497Z,60.14
2022-09-07T10:24:38.868Z,60.20
2022-09-07T10:25:41.444Z,60.00
2022-09-07T10:26:42.765Z,59.83
2022-09-07T10:27:44.096Z,59.30
2022-09-07T10:30:19.857Z,59.53
2022-09-07T10:31:24.974Z,59.67
2022-09-07T10:32:48.381Z,59.87
2022-09-07T10:35:34.268Z,60.15
2022-09-07T10:36:51.356Z,59.31
2022-09-07T10:37:56.934Z,58.72
2022-09-07T10:39:06.682Z,57.52
2022-09-07T10:40:16.776Z,57.75
2022-09-07T10:41:22.657Z,58.01
2022-09-07T10:42:29.247Z,57.92
2022-09-07T10:43:36.151Z,58.16
2022-09-07T10:45:03.930Z,58.13
2022-09-07T10:46:11.229Z,57.99
2022-09-07T10:47:30.682Z,57.73
2022-09-07T10:48:44.383Z,57.28
2022-09-07T10:51:33.086Z,57.08
2022-09-07T10:52:38.667Z,56.48
2022-09-07T10:54:29.883Z,56.36
2022-09-07T10:55:31.177Z,56.01
2022-09-07T10:56:35.363Z,55.83
2022-09-07T10:57:36.938Z,55.07
2022-09-07T10:59:04.218Z,54.76
2022-09-07T11:00:11.478Z,54.45
2022-09-07T11:01:12.964Z,57.32
2022-09-07T11:02:24.406Z,56.25
2022-09-07T11:03:31.918Z,54.77
2022-09-07T11:04:40.056Z,55.39
2022-09-07T11:05:44.417Z,54.33
2022-09-07T11:06:48.185Z,53.26
2022-09-07T11:07:58.688Z,54.45
2022-09-07T11:09:19.740Z,54.34
2022-09-07T11:10:26.915Z,54.73
2022-09-07T11:13:01.790Z,54.18
2022-09-07T11:14:13.430Z,53.95
2022-09-07T11:15:22.516Z,53.88
2022-09-07T11:17:52.055Z,54.13
2022-09-07T11:19:35.013Z,50.74
2022-09-07T11:20:22.208Z,51.08
2022-09-07T11:22:51.395Z,51.93
2022-09-07T11:24:03.132Z,52.43
2022-09-07T11:25:32.336Z,52.60
2022-09-07T11:26:39.317Z,51.63
2022-09-07T11:28:03.986Z,52.54
2022-09-07T11:29:31.116Z,51.12
2022-09-07T11:30:40.798Z,46.56
2022-09-07T11:31:45.351Z,47.55
2022-09-07T11:33:06.905Z,49.06
2022-09-07T11:34:24.305Z,48.58
2022-09-07T11:35:31.656Z,49.08
2022-09-07T11:36:34.748Z,49.69
2022-09-07T11:37:42.367Z,50.00
2022-09-07T11:38:57.161Z,50.47
2022-09-07T11:40:06.202Z,49.49
2022-09-07T11:41:26.376Z,49.75
2022-09-07T11:42:53.667Z,50.28
2022-09-07T11:43:58.347Z,51.15
2022-09-07T11:45:05.462Z,49.44
2022-09-07T11:46:06.775Z,48.73
2022-09-07T11:47:19.756Z,48.79
2022-09-07T11:48:30.970Z,47.18
2022-09-07T11:49:32.461Z,48.02
2022-09-07T11:50:36.679Z,47.55
2022-09-07T11:51:41.141Z,48.02
2022-09-07T11:52:45.863Z,48.11
2022-09-07T11:53:51.027Z,47.10
2022-09-07T11:54:57.372Z,46.81
2022-09-07T11:56:01.899Z,46.91
2022-09-07T11:57:06.052Z,47.38
2022-09-07T11:58:10.324Z,46.99
2022-09-07T11:59:14.629Z,46.42
2022-09-07T12:00:21.312Z,45.58
2022-09-07T12:01:22.579Z,46.50
2022-09-07T12:02:58.910Z,47.42
2022-09-07T12:04:08.634Z,45.92
2022-09-07T12:05:18.475Z,45.40
2022-09-07T12:06:38.490Z,47.00
2022-09-07T12:07:48.653Z,45.17
2022-09-07T12:09:02.175Z,45.77
2022-09-07T12:10:06.491Z,47.10
2022-09-07T12:11:19.105Z,45.63
2022-09-07T12:12:39.418Z,44.88
2022-09-07T12:13:59.564Z,45.79
2022-09-07T12:15:09.445Z,44.89
2022-09-07T12:16:19.157Z,45.23
2022-09-07T12:17:33.179Z,44.18
2022-09-07T12:19:01.592Z,43.99
2022-09-07T12:20:09.746Z,43.38
2022-09-07T12:21:29.892Z,44.77
2022-09-07T12:22:31.227Z,44.83
2022-09-07T12:23:33.320Z,45.63
2022-09-07T12:24:44.586Z,46.23
2022-09-07T12:25:47.215Z,44.50
2022-09-07T12:26:49.742Z,44.76
2022-09-07T12:27:51.646Z,45.23
2022-09-07T12:28:52.911Z,45.78
2022-09-07T12:29:57.187Z,46.55
2022-09-07T12:31:00.002Z,45.75
2022-09-07T12:33:43.477Z,45.37
2022-09-07T12:34:52.775Z,46.42
2022-09-07T12:35:54.309Z,44.17
2022-09-07T12:36:56.314Z,44.40
2022-09-07T12:38:01.784Z,43.60
2022-09-07T12:39:05.704Z,42.81
2022-09-07T12:40:26.076Z,42.34
2022-09-07T12:41:40.577Z,42.49
2022-09-07T12:42:41.910Z,42.21
2022-09-07T12:43:43.191Z,42.45
2022-09-07T12:44:44.726Z,42.89
2022-09-07T12:45:46.201Z,43.56
2022-09-07T12:46:50.486Z,43.55
2022-09-07T12:48:02.711Z,43.05
2022-09-07T12:49:16.268Z,43.42
2022-09-07T12:50:17.761Z,43.12
2022-09-07T12:52:46.890Z,43.41
2022-09-07T12:53:55.522Z,43.76
2022-09-07T12:55:26.513Z,43.44
2022-09-07T12:56:45.121Z,44.05
2022-09-07T12:57:54.335Z,44.06
2022-09-07T12:58:55.607Z,42.78
2022-09-07T13:00:03.578Z,43.35
2022-09-07T13:01:05.624Z,43.60
2022-09-07T13:02:09.881Z,43.80
2022-09-07T13:03:55.862Z,42.95
2022-09-07T13:05:15.821Z,42.77
2022-09-07T13:06:17.298Z,43.06
2022-09-07T13:07:21.776Z,43.28
2022-09-07T13:08:46.303Z,42.37
2022-09-07T13:09:57.676Z,42.35
2022-09-07T13:11:34.774Z,41.83
2022-09-07T13:12:53.919Z,41.91
2022-09-07T13:14:03.893Z,41.66
2022-09-07T13:15:05.998Z,41.96
2022-09-07T13:16:10.575Z,42.67
2022-09-07T13:17:32.993Z,42.45
2022-09-07T13:18:34.459Z,41.88
2022-09-07T13:19:50.787Z,42.08
2022-09-07T13:21:17.977Z,43.25
2022-09-07T13:22:35.426Z,42.16
2022-09-07T13:23:37.843Z,41.84
2022-09-07T13:24:49.380Z,40.01
2022-09-07T13:25:52.361Z,40.35
2022-09-07T13:26:58.514Z,40.65
2022-09-07T13:28:01.689Z,40.37
2022-09-07T13:29:04.715Z,39.65
2022-09-07T13:30:14.859Z,39.75
2022-09-07T13:31:24.957Z,40.03
2022-09-07T13:33:50.224Z,40.64
2022-09-07T13:34:51.474Z,40.87
2022-09-07T13:35:54.445Z,40.94
2022-09-07T13:36:55.998Z,39.08
2022-09-07T13:38:01.557Z,40.59
2022-09-07T13:39:08.770Z,40.09
2022-09-07T13:40:11.572Z,40.61
2022-09-07T13:41:15.227Z,39.54
2022-09-07T13:42:18.378Z,39.26
2022-09-07T13:43:21.150Z,40.00
2022-09-07T13:44:26.191Z,39.96
2022-09-07T13:45:34.403Z,39.90
2022-09-07T13:46:44.182Z,40.67
2022-09-07T13:48:02.779Z,40.29
2022-09-07T13:49:16.243Z,40.55
2022-09-07T13:50:22.390Z,40.38
2022-09-07T13:51:27.983Z,39.35
2022-09-07T13:52:29.248Z,39.62
2022-09-07T13:53:42.465Z,40.04
2022-09-07T13:55:02.379Z,39.88
2022-09-07T13:56:15.410Z,40.37
2022-09-07T13:57:25.650Z,39.94
2022-09-07T13:58:34.119Z,40.30
2022-09-07T13:59:35.490Z,40.89
2022-09-07T14:00:36.999Z,39.33
2022-09-07T14:01:42.814Z,39.90
2022-09-07T14:02:53.145Z,39.96
2022-09-07T14:03:58.949Z,39.24
2022-09-07T14:05:00.925Z,39.01
2022-09-07T14:06:20.607Z,39.49
2022-09-07T14:07:23.392Z,39.11
2022-09-07T14:08:26.475Z,39.87
2022-09-07T14:09:27.800Z,38.98
2022-09-07T14:10:29.124Z,38.77
2022-09-07T14:11:30.418Z,39.07
2022-09-07T14:12:31.792Z,38.84
2022-09-07T14:13:33.190Z,38.29
2022-09-07T14:14:34.490Z,38.63
2022-09-07T14:15:41.189Z,38.76
2022-09-07T14:16:44.378Z,38.32
2022-09-07T14:17:46.231Z,37.79
2022-09-07T14:18:47.522Z,37.65
2022-09-07T14:19:52.035Z,38.15
2022-09-07T14:20:53.458Z,38.43
2022-09-07T14:21:55.783Z,39.37
2022-09-07T14:22:57.300Z,39.47
2022-09-07T14:23:58.677Z,39.22
2022-09-07T14:25:01.555Z,38.30
2022-09-07T14:26:16.352Z,38.27
2022-09-07T14:27:26.870Z,37.66
2022-09-07T14:28:29.437Z,37.87
2022-09-07T14:29:32.192Z,37.16
2022-09-07T14:30:33.595Z,37.97
2022-09-07T14:31:35.828Z,37.96
2022-09-07T14:32:37.268Z,38.27
2022-09-07T14:33:43.647Z,38.21
2022-09-07T14:34:47.844Z,38.22
2022-09-07T14:35:50.519Z,38.45
2022-09-07T14:36:52.200Z,38.45
2022-09-07T14:37:54.799Z,37.81
2022-09-07T14:39:04.813Z,37.83
2022-09-07T14:40:07.204Z,37.87
2022-09-07T14:41:11.632Z,38.86
2022-09-07T14:42:15.281Z,38.59
2022-09-07T14:43:32.811Z,38.87
2022-09-07T14:44:35.545Z,39.50
2022-09-07T14:45:37.796Z,40.18
2022-09-07T14:46:39.936Z,39.91